Startpagina
METAR-TAF:

METAR-TAF

Vliegvelden :

Malé, Maldiven

Malé International Airport

breedte: 04-12N, lengte: 073-32E, hoogte: 2 m

Actueel weer

Dit bericht is 51 minuten geleden gemaakt, om 21:00 UTC
Wind 12 kt uit het oostnoordoosten
Temperatuur 27°C
Vochtigheid 74%
Druk 1010 hPa
Zicht: 7000 m
Weinig wolken op 1700 ft, Stapelwolken.
Verspreide wolken op 28000 ft

METAR: VRMM 182100Z 07012KT 7000 FEW017TCU SCT280 27/22 Q1010 NOSIG

Tijdstip: 02:51 (21:51 UTC)

Verwachting

Dit bericht is 4 uur en het 51 minuten geleden gemaakt, om 17:00 UTC
Verwachting geldig van 18 om 18 UTC tot 19 om 24 UTC
Wind 14 kt uit het oostnoordoosten
Zicht: 7000 m
Weinig wolken op 1800 ft
Tijdelijke
van 18 om 18 UTC tot 18 om 24 UTC
Zicht: 5000 m
Weinig wolken op 1800 ft, Cumulonimbus.
Heiigheid

TAF: VRMM 181700Z 1818/1924 07014KT 7000 FEW018 TEMPO 1818/1824 5000 HZ FEW018CB

Waarnemingen en weersverwachtingen van meer dan 4000 vliegvelden (METAR en TAF).

De beschikbare stations zijn de gele en rode punten op de kaart.

Ga met uw muis naar het station om de naam te zien.

Klik dan om waarnemingen en weersverwachtingen te zien.

kaart wijzigen: klik op de groene knoppen met een zwart kruis om in te zoomen, op de groene knop met een streepje om uit te zoomen of op de groene pijlen voor aangrenzende kaarten.


METAR-TAF: